sensor_id;sensor_type;location;lat;lon;timestamp;temperature;humidity
25871;DHT22;13689;48.590;7.752;2023-10-19T00:01:10;12.10;99.90
25871;DHT22;13689;48.590;7.752;2023-10-19T00:03:37;12.10;99.90
25871;DHT22;13689;48.590;7.752;2023-10-19T00:06:02;12.10;99.90
25871;DHT22;13689;48.590;7.752;2023-10-19T00:08:28;12.10;99.90
25871;DHT22;13689;48.590;7.752;2023-10-19T00:11:02;12.10;99.90
25871;DHT22;13689;48.590;7.752;2023-10-19T00:13:27;12.10;99.90
25871;DHT22;13689;48.590;7.752;2023-10-19T00:15:55;12.20;99.90
25871;DHT22;13689;48.590;7.752;2023-10-19T00:18:23;12.20;99.90
25871;DHT22;13689;48.590;7.752;2023-10-19T00:20:54;12.20;99.90
25871;DHT22;13689;48.590;7.752;2023-10-19T00:23:20;12.20;99.90
25871;DHT22;13689;48.590;7.752;2023-10-19T00:25:58;12.20;99.90
25871;DHT22;13689;48.590;7.752;2023-10-19T00:28:24;12.30;99.90
25871;DHT22;13689;48.590;7.752;2023-10-19T00:30:52;12.20;99.90
25871;DHT22;13689;48.590;7.752;2023-10-19T00:33:19;12.20;99.90
25871;DHT22;13689;48.590;7.752;2023-10-19T00:35:54;12.20;99.90
25871;DHT22;13689;48.590;7.752;2023-10-19T00:38:27;12.20;99.90
25871;DHT22;13689;48.590;7.752;2023-10-19T00:40:56;12.30;99.90
25871;DHT22;13689;48.590;7.752;2023-10-19T00:43:31;12.30;99.90
25871;DHT22;13689;48.590;7.752;2023-10-19T00:46:09;12.30;99.90
25871;DHT22;13689;48.590;7.752;2023-10-19T00:49:15;12.40;99.90
25871;DHT22;13689;48.590;7.752;2023-10-19T00:51:47;12.40;99.90
25871;DHT22;13689;48.590;7.752;2023-10-19T00:54:22;12.40;99.90
25871;DHT22;13689;48.590;7.752;2023-10-19T00:56:53;12.40;99.90
25871;DHT22;13689;48.590;7.752;2023-10-19T00:59:21;12.40;99.90
25871;DHT22;13689;48.590;7.752;2023-10-19T01:01:51;12.40;99.90
25871;DHT22;13689;48.590;7.752;2023-10-19T01:04:23;12.40;99.90
25871;DHT22;13689;48.590;7.752;2023-10-19T01:06:50;12.40;99.90
25871;DHT22;13689;48.590;7.752;2023-10-19T01:09:33;12.50;99.90
25871;DHT22;13689;48.590;7.752;2023-10-19T01:12:04;12.50;99.90
25871;DHT22;13689;48.590;7.752;2023-10-19T01:17:35;12.50;99.90
25871;DHT22;13689;48.590;7.752;2023-10-19T01:20:07;12.40;99.90
25871;DHT22;13689;48.590;7.752;2023-10-19T01:22:54;12.40;99.90
25871;DHT22;13689;48.590;7.752;2023-10-19T01:25:53;12.50;99.90
25871;DHT22;13689;48.590;7.752;2023-10-19T01:28:29;12.50;99.90
25871;DHT22;13689;48.590;7.752;2023-10-19T01:31:20;12.50;99.90
25871;DHT22;13689;48.590;7.752;2023-10-19T01:33:55;12.50;99.90
25871;DHT22;13689;48.590;7.752;2023-10-19T01:36:23;12.50;99.90
25871;DHT22;13689;48.590;7.752;2023-10-19T01:38:49;12.50;99.90
25871;DHT22;13689;48.590;7.752;2023-10-19T01:41:15;12.50;99.90
25871;DHT22;13689;48.590;7.752;2023-10-19T01:43:45;12.50;99.90
25871;DHT22;13689;48.590;7.752;2023-10-19T01:46:14;12.60;99.90
25871;DHT22;13689;48.590;7.752;2023-10-19T01:48:48;12.60;99.90
25871;DHT22;13689;48.590;7.752;2023-10-19T01:51:25;12.60;99.90
25871;DHT22;13689;48.590;7.752;2023-10-19T01:53:52;12.60;99.90
25871;DHT22;13689;48.590;7.752;2023-10-19T01:56:18;12.50;99.90
25871;DHT22;13689;48.590;7.752;2023-10-19T01:58:46;12.50;99.90
25871;DHT22;13689;48.590;7.752;2023-10-19T02:01:13;12.50;99.90
25871;DHT22;13689;48.590;7.752;2023-10-19T02:03:40;12.50;99.90
25871;DHT22;13689;48.590;7.752;2023-10-19T02:06:12;12.50;99.90
25871;DHT22;13689;48.590;7.752;2023-10-19T02:08:41;12.60;99.90
25871;DHT22;13689;48.590;7.752;2023-10-19T02:11:09;12.60;99.90
25871;DHT22;13689;48.590;7.752;2023-10-19T02:13:42;12.60;99.90
25871;DHT22;13689;48.590;7.752;2023-10-19T02:16:09;12.60;99.90
25871;DHT22;13689;48.590;7.752;2023-10-19T02:18:34;12.60;99.90
25871;DHT22;13689;48.590;7.752;2023-10-19T02:21:01;12.60;99.90
25871;DHT22;13689;48.590;7.752;2023-10-19T02:23:31;12.60;99.90
25871;DHT22;13689;48.590;7.752;2023-10-19T02:25:57;12.60;99.90
25871;DHT22;13689;48.590;7.752;2023-10-19T02:28:24;12.60;99.90
25871;DHT22;13689;48.590;7.752;2023-10-19T02:30:55;12.50;99.90
25871;DHT22;13689;48.590;7.752;2023-10-19T02:33:20;12.60;99.90
25871;DHT22;13689;48.590;7.752;2023-10-19T02:35:46;12.60;99.90
25871;DHT22;13689;48.590;7.752;2023-10-19T02:38:13;12.60;99.90
25871;DHT22;13689;48.590;7.752;2023-10-19T02:40:39;12.50;99.90
25871;DHT22;13689;48.590;7.752;2023-10-19T02:43:05;12.60;99.90
25871;DHT22;13689;48.590;7.752;2023-10-19T02:45:31;12.60;99.90
25871;DHT22;13689;48.590;7.752;2023-10-19T02:47:58;12.60;99.90
25871;DHT22;13689;48.590;7.752;2023-10-19T02:50:23;12.60;99.90
25871;DHT22;13689;48.590;7.752;2023-10-19T02:52:52;12.60;99.90
25871;DHT22;13689;48.590;7.752;2023-10-19T02:55:18;12.60;99.90
25871;DHT22;13689;48.590;7.752;2023-10-19T02:57:48;12.60;99.90
25871;DHT22;13689;48.590;7.752;2023-10-19T03:00:15;12.60;99.90
25871;DHT22;13689;48.590;7.752;2023-10-19T03:02:45;12.60;99.90
25871;DHT22;13689;48.590;7.752;2023-10-19T03:05:11;12.50;99.90
25871;DHT22;13689;48.590;7.752;2023-10-19T03:07:41;12.50;99.90
25871;DHT22;13689;48.590;7.752;2023-10-19T03:10:09;12.60;99.90
25871;DHT22;13689;48.590;7.752;2023-10-19T03:13:00;12.60;99.90
25871;DHT22;13689;48.590;7.752;2023-10-19T03:15:27;12.50;99.90
25871;DHT22;13689;48.590;7.752;2023-10-19T03:17:55;12.50;99.90
25871;DHT22;13689;48.590;7.752;2023-10-19T03:20:21;12.50;99.90
25871;DHT22;13689;48.590;7.752;2023-10-19T03:22:50;12.40;99.90
25871;DHT22;13689;48.590;7.752;2023-10-19T03:25:16;12.50;99.90
25871;DHT22;13689;48.590;7.752;2023-10-19T03:28:00;12.40;99.90
25871;DHT22;13689;48.590;7.752;2023-10-19T03:30:37;12.40;99.90
25871;DHT22;13689;48.590;7.752;2023-10-19T03:33:08;12.40;99.90
25871;DHT22;13689;48.590;7.752;2023-10-19T03:35:38;12.40;99.90
25871;DHT22;13689;48.590;7.752;2023-10-19T03:38:07;12.40;99.90
25871;DHT22;13689;48.590;7.752;2023-10-19T03:40:40;12.40;99.90
25871;DHT22;13689;48.590;7.752;2023-10-19T03:43:06;12.40;99.90
25871;DHT22;13689;48.590;7.752;2023-10-19T03:45:42;12.30;99.90
25871;DHT22;13689;48.590;7.752;2023-10-19T03:48:14;12.40;99.90
25871;DHT22;13689;48.590;7.752;2023-10-19T03:50:41;12.30;99.90
25871;DHT22;13689;48.590;7.752;2023-10-19T03:53:08;12.40;99.90
25871;DHT22;13689;48.590;7.752;2023-10-19T03:55:37;12.30;99.90
25871;DHT22;13689;48.590;7.752;2023-10-19T03:58:04;12.30;99.90
25871;DHT22;13689;48.590;7.752;2023-10-19T04:00:30;12.30;99.90
25871;DHT22;13689;48.590;7.752;2023-10-19T04:02:59;12.30;99.90
25871;DHT22;13689;48.590;7.752;2023-10-19T04:05:24;12.30;99.90
25871;DHT22;13689;48.590;7.752;2023-10-19T04:07:52;12.30;99.90
25871;DHT22;13689;48.590;7.752;2023-10-19T04:10:24;12.30;99.90
25871;DHT22;13689;48.590;7.752;2023-10-19T04:13:04;12.30;99.90
25871;DHT22;13689;48.590;7.752;2023-10-19T04:15:30;12.30;99.90
25871;DHT22;13689;48.590;7.752;2023-10-19T04:17:59;12.30;99.90
25871;DHT22;13689;48.590;7.752;2023-10-19T04:20:25;12.30;99.90
25871;DHT22;13689;48.590;7.752;2023-10-19T04:22:51;12.30;99.90
25871;DHT22;13689;48.590;7.752;2023-10-19T04:25:18;12.30;99.90
25871;DHT22;13689;48.590;7.752;2023-10-19T04:27:51;12.40;99.90
25871;DHT22;13689;48.590;7.752;2023-10-19T04:30:17;12.40;99.90
25871;DHT22;13689;48.590;7.752;2023-10-19T04:32:47;12.40;99.90
25871;DHT22;13689;48.590;7.752;2023-10-19T04:35:14;12.40;99.90
25871;DHT22;13689;48.590;7.752;2023-10-19T04:37:50;12.40;99.90
25871;DHT22;13689;48.590;7.752;2023-10-19T04:40:17;12.40;99.90
25871;DHT22;13689;48.590;7.752;2023-10-19T04:42:43;12.40;99.90
25871;DHT22;13689;48.590;7.752;2023-10-19T04:45:09;12.40;99.90
25871;DHT22;13689;48.590;7.752;2023-10-19T04:47:37;12.40;99.90
25871;DHT22;13689;48.590;7.752;2023-10-19T04:50:03;12.30;99.90
25871;DHT22;13689;48.590;7.752;2023-10-19T04:52:29;12.30;99.90
25871;DHT22;13689;48.590;7.752;2023-10-19T04:54:55;12.40;99.90
25871;DHT22;13689;48.590;7.752;2023-10-19T04:57:21;12.40;99.90
25871;DHT22;13689;48.590;7.752;2023-10-19T04:59:47;12.40;99.90
25871;DHT22;13689;48.590;7.752;2023-10-19T05:02:12;12.30;99.90
25871;DHT22;13689;48.590;7.752;2023-10-19T05:04:38;12.40;99.90
25871;DHT22;13689;48.590;7.752;2023-10-19T05:07:04;12.40;99.90
25871;DHT22;13689;48.590;7.752;2023-10-19T05:09:31;12.40;99.90
25871;DHT22;13689;48.590;7.752;2023-10-19T05:11:56;12.40;99.90
25871;DHT22;13689;48.590;7.752;2023-10-19T05:14:22;12.40;99.90
25871;DHT22;13689;48.590;7.752;2023-10-19T05:16:48;12.40;99.90
25871;DHT22;13689;48.590;7.752;2023-10-19T05:19:14;12.40;99.90
25871;DHT22;13689;48.590;7.752;2023-10-19T05:21:40;12.50;99.90
25871;DHT22;13689;48.590;7.752;2023-10-19T05:24:06;12.50;99.90
25871;DHT22;13689;48.590;7.752;2023-10-19T05:26:33;12.50;99.90
25871;DHT22;13689;48.590;7.752;2023-10-19T05:28:59;12.50;99.90
25871;DHT22;13689;48.590;7.752;2023-10-19T05:31:24;12.50;99.90
25871;DHT22;13689;48.590;7.752;2023-10-19T05:33:50;12.50;99.90
25871;DHT22;13689;48.590;7.752;2023-10-19T05:36:16;12.50;99.90
25871;DHT22;13689;48.590;7.752;2023-10-19T05:38:43;12.50;99.90
25871;DHT22;13689;48.590;7.752;2023-10-19T05:41:09;12.60;99.90
25871;DHT22;13689;48.590;7.752;2023-10-19T05:43:36;12.60;99.90
25871;DHT22;13689;48.590;7.752;2023-10-19T05:46:02;12.60;99.90
25871;DHT22;13689;48.590;7.752;2023-10-19T05:48:28;12.60;99.90
25871;DHT22;13689;48.590;7.752;2023-10-19T05:50:53;12.70;99.90
25871;DHT22;13689;48.590;7.752;2023-10-19T05:53:19;12.60;99.90
25871;DHT22;13689;48.590;7.752;2023-10-19T05:55:50;12.70;99.90
25871;DHT22;13689;48.590;7.752;2023-10-19T05:58:16;12.70;99.90
25871;DHT22;13689;48.590;7.752;2023-10-19T06:00:42;12.70;99.90
25871;DHT22;13689;48.590;7.752;2023-10-19T06:03:08;12.70;99.90
25871;DHT22;13689;48.590;7.752;2023-10-19T06:05:33;12.70;99.90
25871;DHT22;13689;48.590;7.752;2023-10-19T06:07:59;12.70;99.90
25871;DHT22;13689;48.590;7.752;2023-10-19T06:10:27;12.70;99.90
25871;DHT22;13689;48.590;7.752;2023-10-19T06:12:53;12.80;99.90
25871;DHT22;13689;48.590;7.752;2023-10-19T06:15:20;12.80;99.90
25871;DHT22;13689;48.590;7.752;2023-10-19T06:17:47;12.90;99.90
25871;DHT22;13689;48.590;7.752;2023-10-19T06:20:14;12.90;99.90
25871;DHT22;13689;48.590;7.752;2023-10-19T06:22:59;12.90;99.90
25871;DHT22;13689;48.590;7.752;2023-10-19T06:25:32;13.00;99.90
25871;DHT22;13689;48.590;7.752;2023-10-19T06:27:58;13.00;99.90
25871;DHT22;13689;48.590;7.752;2023-10-19T06:30:25;13.00;99.90
25871;DHT22;13689;48.590;7.752;2023-10-19T06:32:55;13.00;99.90
25871;DHT22;13689;48.590;7.752;2023-10-19T06:35:23;13.10;99.90
25871;DHT22;13689;48.590;7.752;2023-10-19T06:37:49;13.10;99.90
25871;DHT22;13689;48.590;7.752;2023-10-19T06:40:15;13.10;99.90
25871;DHT22;13689;48.590;7.752;2023-10-19T06:42:46;13.20;99.90
25871;DHT22;13689;48.590;7.752;2023-10-19T06:45:12;13.20;99.90
25871;DHT22;13689;48.590;7.752;2023-10-19T06:47:42;13.20;99.90
25871;DHT22;13689;48.590;7.752;2023-10-19T06:50:11;13.30;99.90
25871;DHT22;13689;48.590;7.752;2023-10-19T06:52:38;13.30;99.90
25871;DHT22;13689;48.590;7.752;2023-10-19T06:55:05;13.30;99.90
25871;DHT22;13689;48.590;7.752;2023-10-19T06:57:31;13.40;99.90
25871;DHT22;13689;48.590;7.752;2023-10-19T07:00:00;13.40;99.90
25871;DHT22;13689;48.590;7.752;2023-10-19T07:02:36;13.40;99.90
25871;DHT22;13689;48.590;7.752;2023-10-19T07:05:01;13.50;99.90
25871;DHT22;13689;48.590;7.752;2023-10-19T07:07:28;13.50;99.90
25871;DHT22;13689;48.590;7.752;2023-10-19T07:09:55;13.50;99.90
25871;DHT22;13689;48.590;7.752;2023-10-19T07:12:20;13.50;99.90
25871;DHT22;13689;48.590;7.752;2023-10-19T07:14:46;13.60;99.90
25871;DHT22;13689;48.590;7.752;2023-10-19T07:17:12;13.60;99.90
25871;DHT22;13689;48.590;7.752;2023-10-19T07:19:42;13.70;99.90
25871;DHT22;13689;48.590;7.752;2023-10-19T07:22:08;13.70;99.90
25871;DHT22;13689;48.590;7.752;2023-10-19T07:24:35;13.80;99.90
25871;DHT22;13689;48.590;7.752;2023-10-19T07:27:03;13.90;99.90
25871;DHT22;13689;48.590;7.752;2023-10-19T07:29:33;13.90;99.90
25871;DHT22;13689;48.590;7.752;2023-10-19T07:32:02;14.00;99.90
25871;DHT22;13689;48.590;7.752;2023-10-19T07:34:31;14.00;99.90
25871;DHT22;13689;48.590;7.752;2023-10-19T07:36:58;14.10;99.90
25871;DHT22;13689;48.590;7.752;2023-10-19T07:39:26;14.10;99.90
25871;DHT22;13689;48.590;7.752;2023-10-19T07:41:55;14.20;99.90
25871;DHT22;13689;48.590;7.752;2023-10-19T07:44:21;14.30;99.90
25871;DHT22;13689;48.590;7.752;2023-10-19T07:46:46;14.30;99.90
25871;DHT22;13689;48.590;7.752;2023-10-19T07:49:12;14.40;99.90
25871;DHT22;13689;48.590;7.752;2023-10-19T07:51:47;14.50;99.90
25871;DHT22;13689;48.590;7.752;2023-10-19T07:54:13;14.50;99.90
25871;DHT22;13689;48.590;7.752;2023-10-19T07:56:39;14.60;99.90
25871;DHT22;13689;48.590;7.752;2023-10-19T07:59:05;14.60;99.90
25871;DHT22;13689;48.590;7.752;2023-10-19T08:01:32;14.60;99.90
25871;DHT22;13689;48.590;7.752;2023-10-19T08:03:58;14.60;99.90
25871;DHT22;13689;48.590;7.752;2023-10-19T08:06:23;14.60;99.90
25871;DHT22;13689;48.590;7.752;2023-10-19T08:08:49;14.60;99.90
25871;DHT22;13689;48.590;7.752;2023-10-19T08:11:16;14.60;99.90
25871;DHT22;13689;48.590;7.752;2023-10-19T08:13:42;14.60;99.90
25871;DHT22;13689;48.590;7.752;2023-10-19T08:16:08;14.60;99.90
25871;DHT22;13689;48.590;7.752;2023-10-19T08:18:34;14.60;99.90
25871;DHT22;13689;48.590;7.752;2023-10-19T08:21:03;14.70;99.90
25871;DHT22;13689;48.590;7.752;2023-10-19T08:23:28;14.90;99.90
25871;DHT22;13689;48.590;7.752;2023-10-19T08:25:57;15.10;99.90
25871;DHT22;13689;48.590;7.752;2023-10-19T08:28:23;15.20;99.90
25871;DHT22;13689;48.590;7.752;2023-10-19T08:30:49;15.30;99.90
25871;DHT22;13689;48.590;7.752;2023-10-19T08:33:26;15.30;99.90
25871;DHT22;13689;48.590;7.752;2023-10-19T08:35:53;15.50;99.90
25871;DHT22;13689;48.590;7.752;2023-10-19T08:38:22;15.80;99.90
25871;DHT22;13689;48.590;7.752;2023-10-19T08:40:50;15.90;99.90
25871;DHT22;13689;48.590;7.752;2023-10-19T08:43:17;16.00;99.90
25871;DHT22;13689;48.590;7.752;2023-10-19T08:45:44;16.20;99.90
25871;DHT22;13689;48.590;7.752;2023-10-19T08:48:10;16.50;99.90
25871;DHT22;13689;48.590;7.752;2023-10-19T08:50:37;17.20;99.90
25871;DHT22;13689;48.590;7.752;2023-10-19T08:53:04;17.40;99.90
25871;DHT22;13689;48.590;7.752;2023-10-19T08:55:32;17.20;99.90
25871;DHT22;13689;48.590;7.752;2023-10-19T08:58:00;17.10;99.90
25871;DHT22;13689;48.590;7.752;2023-10-19T09:00:26;16.90;99.90
25871;DHT22;13689;48.590;7.752;2023-10-19T09:02:55;16.80;99.90
25871;DHT22;13689;48.590;7.752;2023-10-19T09:05:22;16.90;99.90
25871;DHT22;13689;48.590;7.752;2023-10-19T09:07:52;16.90;99.90
25871;DHT22;13689;48.590;7.752;2023-10-19T09:10:22;16.80;99.90
25871;DHT22;13689;48.590;7.752;2023-10-19T09:13:06;16.70;99.90
25871;DHT22;13689;48.590;7.752;2023-10-19T09:15:36;16.60;99.90
25871;DHT22;13689;48.590;7.752;2023-10-19T09:18:15;16.50;99.90
25871;DHT22;13689;48.590;7.752;2023-10-19T09:20:42;16.50;99.90
25871;DHT22;13689;48.590;7.752;2023-10-19T09:23:21;16.50;99.90
25871;DHT22;13689;48.590;7.752;2023-10-19T09:25:51;16.40;99.90
25871;DHT22;13689;48.590;7.752;2023-10-19T09:28:20;16.30;99.90
25871;DHT22;13689;48.590;7.752;2023-10-19T09:30:46;16.20;99.90
25871;DHT22;13689;48.590;7.752;2023-10-19T09:33:13;16.20;99.90
25871;DHT22;13689;48.590;7.752;2023-10-19T09:35:45;16.10;99.90
25871;DHT22;13689;48.590;7.752;2023-10-19T09:38:14;15.90;99.90
25871;DHT22;13689;48.590;7.752;2023-10-19T09:40:40;15.90;99.90
25871;DHT22;13689;48.590;7.752;2023-10-19T09:43:16;15.80;99.90
25871;DHT22;13689;48.590;7.752;2023-10-19T09:45:49;15.70;99.90
25871;DHT22;13689;48.590;7.752;2023-10-19T09:48:18;15.60;99.90
25871;DHT22;13689;48.590;7.752;2023-10-19T09:50:51;15.60;99.90
25871;DHT22;13689;48.590;7.752;2023-10-19T09:53:27;15.50;99.90
25871;DHT22;13689;48.590;7.752;2023-10-19T09:55:56;15.50;99.90
25871;DHT22;13689;48.590;7.752;2023-10-19T09:58:32;15.40;99.90
25871;DHT22;13689;48.590;7.752;2023-10-19T10:01:00;15.30;99.90
25871;DHT22;13689;48.590;7.752;2023-10-19T10:03:50;15.30;99.90
25871;DHT22;13689;48.590;7.752;2023-10-19T10:06:30;15.10;99.90
25871;DHT22;13689;48.590;7.752;2023-10-19T10:08:56;15.00;99.90
25871;DHT22;13689;48.590;7.752;2023-10-19T10:11:26;15.00;99.90
25871;DHT22;13689;48.590;7.752;2023-10-19T10:13:55;14.90;99.90
25871;DHT22;13689;48.590;7.752;2023-10-19T10:16:28;14.90;99.90
25871;DHT22;13689;48.590;7.752;2023-10-19T10:18:58;14.90;99.90
25871;DHT22;13689;48.590;7.752;2023-10-19T10:21:25;14.90;99.90
25871;DHT22;13689;48.590;7.752;2023-10-19T10:26:25;14.90;99.90
25871;DHT22;13689;48.590;7.752;2023-10-19T10:31:42;14.90;99.90
25871;DHT22;13689;48.590;7.752;2023-10-19T10:34:57;14.90;99.90
25871;DHT22;13689;48.590;7.752;2023-10-19T10:36:59;14.90;99.90
25871;DHT22;13689;48.590;7.752;2023-10-19T10:39:29;15.00;99.90
25871;DHT22;13689;48.590;7.752;2023-10-19T10:41:59;15.00;99.90
25871;DHT22;13689;48.590;7.752;2023-10-19T10:44:42;15.10;99.90
25871;DHT22;13689;48.590;7.752;2023-10-19T10:47:22;15.20;99.90
25871;DHT22;13689;48.590;7.752;2023-10-19T10:52:24;15.30;99.90
25871;DHT22;13689;48.590;7.752;2023-10-19T10:54:51;15.30;99.90
25871;DHT22;13689;48.590;7.752;2023-10-19T10:57:17;15.40;99.90
25871;DHT22;13689;48.590;7.752;2023-10-19T10:59:42;15.40;99.90
25871;DHT22;13689;48.590;7.752;2023-10-19T11:02:20;15.40;99.90
25871;DHT22;13689;48.590;7.752;2023-10-19T11:04:47;15.40;99.90
25871;DHT22;13689;48.590;7.752;2023-10-19T11:07:20;15.50;99.90
25871;DHT22;13689;48.590;7.752;2023-10-19T11:09:46;15.60;99.90
25871;DHT22;13689;48.590;7.752;2023-10-19T11:12:13;15.60;99.90
25871;DHT22;13689;48.590;7.752;2023-10-19T11:14:55;15.60;99.90
25871;DHT22;13689;48.590;7.752;2023-10-19T11:17:21;15.60;99.90
25871;DHT22;13689;48.590;7.752;2023-10-19T11:19:55;15.60;99.90
25871;DHT22;13689;48.590;7.752;2023-10-19T11:22:22;15.70;99.90
25871;DHT22;13689;48.590;7.752;2023-10-19T11:24:53;15.70;99.90
25871;DHT22;13689;48.590;7.752;2023-10-19T11:27:27;15.80;99.90
25871;DHT22;13689;48.590;7.752;2023-10-19T11:29:57;15.80;99.90
25871;DHT22;13689;48.590;7.752;2023-10-19T11:32:23;16.00;99.90
25871;DHT22;13689;48.590;7.752;2023-10-19T11:34:52;16.00;99.90
25871;DHT22;13689;48.590;7.752;2023-10-19T11:37:18;16.00;99.90
25871;DHT22;13689;48.590;7.752;2023-10-19T11:39:43;16.00;99.90
25871;DHT22;13689;48.590;7.752;2023-10-19T11:42:09;16.00;99.90
25871;DHT22;13689;48.590;7.752;2023-10-19T11:44:35;16.00;99.90
25871;DHT22;13689;48.590;7.752;2023-10-19T11:47:02;16.10;99.90
25871;DHT22;13689;48.590;7.752;2023-10-19T11:49:28;16.00;99.90
25871;DHT22;13689;48.590;7.752;2023-10-19T11:51:54;16.00;99.90
25871;DHT22;13689;48.590;7.752;2023-10-19T11:54:20;16.00;99.90
25871;DHT22;13689;48.590;7.752;2023-10-19T11:56:46;16.00;99.90
25871;DHT22;13689;48.590;7.752;2023-10-19T11:59:12;16.00;99.90
25871;DHT22;13689;48.590;7.752;2023-10-19T12:01:38;16.00;99.90
25871;DHT22;13689;48.590;7.752;2023-10-19T12:04:04;16.00;99.90
25871;DHT22;13689;48.590;7.752;2023-10-19T12:06:31;16.10;99.90
25871;DHT22;13689;48.590;7.752;2023-10-19T12:08:56;16.10;99.90
25871;DHT22;13689;48.590;7.752;2023-10-19T12:11:24;16.20;99.90
25871;DHT22;13689;48.590;7.752;2023-10-19T12:13:50;16.20;99.90
25871;DHT22;13689;48.590;7.752;2023-10-19T12:16:16;16.20;99.90
25871;DHT22;13689;48.590;7.752;2023-10-19T12:18:43;16.20;99.90
25871;DHT22;13689;48.590;7.752;2023-10-19T12:21:09;16.30;99.90
25871;DHT22;13689;48.590;7.752;2023-10-19T12:23:41;16.20;99.90
25871;DHT22;13689;48.590;7.752;2023-10-19T12:26:08;16.20;99.90
25871;DHT22;13689;48.590;7.752;2023-10-19T12:28:37;16.20;99.90
25871;DHT22;13689;48.590;7.752;2023-10-19T12:31:06;16.10;99.90
25871;DHT22;13689;48.590;7.752;2023-10-19T12:33:36;16.10;99.90
25871;DHT22;13689;48.590;7.752;2023-10-19T12:36:04;16.10;99.90
25871;DHT22;13689;48.590;7.752;2023-10-19T12:38:50;16.10;99.90
25871;DHT22;13689;48.590;7.752;2023-10-19T12:41:17;16.00;99.90
25871;DHT22;13689;48.590;7.752;2023-10-19T12:43:43;16.00;99.90
25871;DHT22;13689;48.590;7.752;2023-10-19T12:46:09;15.90;99.90
25871;DHT22;13689;48.590;7.752;2023-10-19T12:48:37;15.90;99.90
25871;DHT22;13689;48.590;7.752;2023-10-19T12:51:04;15.90;99.90
25871;DHT22;13689;48.590;7.752;2023-10-19T12:53:32;15.90;99.90
25871;DHT22;13689;48.590;7.752;2023-10-19T12:55:58;15.80;99.90
25871;DHT22;13689;48.590;7.752;2023-10-19T12:58:25;15.80;99.90
25871;DHT22;13689;48.590;7.752;2023-10-19T13:00:53;15.80;99.90
25871;DHT22;13689;48.590;7.752;2023-10-19T13:03:20;15.80;99.90
25871;DHT22;13689;48.590;7.752;2023-10-19T13:05:47;15.80;99.90
25871;DHT22;13689;48.590;7.752;2023-10-19T13:08:15;15.80;99.90
25871;DHT22;13689;48.590;7.752;2023-10-19T13:10:42;15.90;99.90
25871;DHT22;13689;48.590;7.752;2023-10-19T13:13:10;15.80;99.90
25871;DHT22;13689;48.590;7.752;2023-10-19T13:15:42;15.80;99.90
25871;DHT22;13689;48.590;7.752;2023-10-19T13:18:09;15.80;99.90
25871;DHT22;13689;48.590;7.752;2023-10-19T13:20:36;15.80;99.90
25871;DHT22;13689;48.590;7.752;2023-10-19T13:23:02;15.80;99.90
25871;DHT22;13689;48.590;7.752;2023-10-19T13:25:32;15.90;99.90
25871;DHT22;13689;48.590;7.752;2023-10-19T13:28:12;15.90;99.90
25871;DHT22;13689;48.590;7.752;2023-10-19T13:30:43;15.90;99.90
25871;DHT22;13689;48.590;7.752;2023-10-19T13:33:09;15.90;99.90
25871;DHT22;13689;48.590;7.752;2023-10-19T13:35:39;16.00;99.90
25871;DHT22;13689;48.590;7.752;2023-10-19T13:38:06;16.00;99.90
25871;DHT22;13689;48.590;7.752;2023-10-19T13:40:34;16.10;99.90
25871;DHT22;13689;48.590;7.752;2023-10-19T13:43:00;16.10;99.90
25871;DHT22;13689;48.590;7.752;2023-10-19T13:45:25;16.10;99.90
25871;DHT22;13689;48.590;7.752;2023-10-19T13:47:51;16.20;99.90
25871;DHT22;13689;48.590;7.752;2023-10-19T13:50:21;16.30;99.90
25871;DHT22;13689;48.590;7.752;2023-10-19T13:52:52;16.30;99.90
25871;DHT22;13689;48.590;7.752;2023-10-19T13:55:18;16.30;99.90
25871;DHT22;13689;48.590;7.752;2023-10-19T13:57:48;16.40;99.90
25871;DHT22;13689;48.590;7.752;2023-10-19T14:00:15;16.40;99.90
25871;DHT22;13689;48.590;7.752;2023-10-19T14:02:46;16.40;99.90
25871;DHT22;13689;48.590;7.752;2023-10-19T14:05:15;16.40;99.90
25871;DHT22;13689;48.590;7.752;2023-10-19T14:07:40;16.30;99.90
25871;DHT22;13689;48.590;7.752;2023-10-19T14:10:09;16.40;99.90
25871;DHT22;13689;48.590;7.752;2023-10-19T14:12:39;16.40;99.90
25871;DHT22;13689;48.590;7.752;2023-10-19T14:15:18;16.40;99.90
25871;DHT22;13689;48.590;7.752;2023-10-19T14:17:45;16.40;99.90
25871;DHT22;13689;48.590;7.752;2023-10-19T14:20:12;16.40;99.90
25871;DHT22;13689;48.590;7.752;2023-10-19T14:22:43;16.40;99.90
25871;DHT22;13689;48.590;7.752;2023-10-19T14:25:12;16.30;99.90
25871;DHT22;13689;48.590;7.752;2023-10-19T14:27:48;16.40;99.90
25871;DHT22;13689;48.590;7.752;2023-10-19T14:30:21;16.40;99.90
25871;DHT22;13689;48.590;7.752;2023-10-19T14:32:48;16.40;99.90
25871;DHT22;13689;48.590;7.752;2023-10-19T14:35:21;16.30;99.90
25871;DHT22;13689;48.590;7.752;2023-10-19T14:37:49;16.30;99.90
25871;DHT22;13689;48.590;7.752;2023-10-19T14:40:16;16.30;99.90
25871;DHT22;13689;48.590;7.752;2023-10-19T14:42:42;16.30;99.90
25871;DHT22;13689;48.590;7.752;2023-10-19T14:45:10;16.30;99.90
25871;DHT22;13689;48.590;7.752;2023-10-19T14:47:40;16.30;99.90
25871;DHT22;13689;48.590;7.752;2023-10-19T14:50:15;16.40;99.90
25871;DHT22;13689;48.590;7.752;2023-10-19T14:52:44;16.40;99.90
25871;DHT22;13689;48.590;7.752;2023-10-19T14:55:11;16.40;99.90
25871;DHT22;13689;48.590;7.752;2023-10-19T14:57:38;16.50;99.90
25871;DHT22;13689;48.590;7.752;2023-10-19T15:00:09;16.50;99.90
25871;DHT22;13689;48.590;7.752;2023-10-19T15:03:00;16.40;99.90
25871;DHT22;13689;48.590;7.752;2023-10-19T15:05:29;16.50;99.90
25871;DHT22;13689;48.590;7.752;2023-10-19T15:07:55;16.50;99.90
25871;DHT22;13689;48.590;7.752;2023-10-19T15:10:23;16.50;99.90
25871;DHT22;13689;48.590;7.752;2023-10-19T15:12:49;16.50;99.90
25871;DHT22;13689;48.590;7.752;2023-10-19T15:15:15;16.40;99.90
25871;DHT22;13689;48.590;7.752;2023-10-19T15:17:41;16.40;99.90
25871;DHT22;13689;48.590;7.752;2023-10-19T15:20:10;16.40;99.90
25871;DHT22;13689;48.590;7.752;2023-10-19T15:22:38;16.40;99.90
25871;DHT22;13689;48.590;7.752;2023-10-19T15:25:05;16.40;99.90
25871;DHT22;13689;48.590;7.752;2023-10-19T15:27:33;16.30;99.90
25871;DHT22;13689;48.590;7.752;2023-10-19T15:29:59;16.30;99.90
25871;DHT22;13689;48.590;7.752;2023-10-19T15:32:24;16.30;99.90
25871;DHT22;13689;48.590;7.752;2023-10-19T15:34:51;16.30;99.90
25871;DHT22;13689;48.590;7.752;2023-10-19T15:37:17;16.30;99.90
25871;DHT22;13689;48.590;7.752;2023-10-19T15:39:43;16.20;99.90
25871;DHT22;13689;48.590;7.752;2023-10-19T15:42:10;16.20;99.90
25871;DHT22;13689;48.590;7.752;2023-10-19T15:44:37;16.20;99.90
25871;DHT22;13689;48.590;7.752;2023-10-19T15:47:03;16.20;99.90
25871;DHT22;13689;48.590;7.752;2023-10-19T15:49:47;16.20;99.90
25871;DHT22;13689;48.590;7.752;2023-10-19T15:52:14;16.20;99.90